sensor_id;sensor_type;location;lat;lon;timestamp;P1;durP1;ratioP1;P2;durP2;ratioP2
9722;SDS011;4900;49.306;8.500;2023-01-10T00:01:06;3.53;;;2.10;;
9722;SDS011;4900;49.306;8.500;2023-01-10T00:04:10;2.77;;;1.80;;
9722;SDS011;4900;49.306;8.500;2023-01-10T00:07:13;2.70;;;1.60;;
9722;SDS011;4900;49.306;8.500;2023-01-10T00:10:15;2.47;;;1.70;;
9722;SDS011;4900;49.306;8.500;2023-01-10T00:13:18;2.50;;;1.47;;
9722;SDS011;4900;49.306;8.500;2023-01-10T00:16:27;2.20;;;1.50;;
9722;SDS011;4900;49.306;8.500;2023-01-10T00:19:31;1.50;;;1.40;;
9722;SDS011;4900;49.306;8.500;2023-01-10T00:22:34;2.27;;;1.60;;
9722;SDS011;4900;49.306;8.500;2023-01-10T00:25:37;1.70;;;1.40;;
9722;SDS011;4900;49.306;8.500;2023-01-10T00:28:40;2.93;;;1.90;;
9722;SDS011;4900;49.306;8.500;2023-01-10T00:31:44;1.40;;;1.30;;
9722;SDS011;4900;49.306;8.500;2023-01-10T00:34:48;2.40;;;1.50;;
9722;SDS011;4900;49.306;8.500;2023-01-10T00:37:54;3.40;;;1.60;;
9722;SDS011;4900;49.306;8.500;2023-01-10T00:41:03;2.03;;;1.43;;
9722;SDS011;4900;49.306;8.500;2023-01-10T00:44:26;2.27;;;1.50;;
9722;SDS011;4900;49.306;8.500;2023-01-10T00:47:29;1.90;;;1.50;;
9722;SDS011;4900;49.306;8.500;2023-01-10T00:50:32;1.93;;;1.50;;
9722;SDS011;4900;49.306;8.500;2023-01-10T00:53:35;1.90;;;1.37;;
9722;SDS011;4900;49.306;8.500;2023-01-10T00:56:37;1.83;;;1.30;;
9722;SDS011;4900;49.306;8.500;2023-01-10T00:59:41;1.63;;;1.50;;
9722;SDS011;4900;49.306;8.500;2023-01-10T01:02:44;1.60;;;1.30;;
9722;SDS011;4900;49.306;8.500;2023-01-10T01:05:47;1.40;;;1.30;;
9722;SDS011;4900;49.306;8.500;2023-01-10T01:08:50;2.13;;;1.67;;
9722;SDS011;4900;49.306;8.500;2023-01-10T01:11:53;1.60;;;1.40;;
9722;SDS011;4900;49.306;8.500;2023-01-10T01:14:58;1.60;;;1.50;;
9722;SDS011;4900;49.306;8.500;2023-01-10T01:18:00;1.40;;;1.30;;
9722;SDS011;4900;49.306;8.500;2023-01-10T01:21:04;1.50;;;1.40;;
9722;SDS011;4900;49.306;8.500;2023-01-10T01:24:08;1.60;;;1.20;;
9722;SDS011;4900;49.306;8.500;2023-01-10T01:27:12;1.37;;;1.20;;
9722;SDS011;4900;49.306;8.500;2023-01-10T01:30:15;1.47;;;1.20;;
9722;SDS011;4900;49.306;8.500;2023-01-10T01:33:18;1.47;;;1.20;;
9722;SDS011;4900;49.306;8.500;2023-01-10T01:36:22;1.33;;;1.20;;
9722;SDS011;4900;49.306;8.500;2023-01-10T01:39:25;0.90;;;0.90;;
9722;SDS011;4900;49.306;8.500;2023-01-10T01:42:29;1.30;;;1.00;;
9722;SDS011;4900;49.306;8.500;2023-01-10T01:45:39;1.10;;;1.00;;
9722;SDS011;4900;49.306;8.500;2023-01-10T01:48:42;1.00;;;0.90;;
9722;SDS011;4900;49.306;8.500;2023-01-10T01:51:46;1.63;;;1.10;;
9722;SDS011;4900;49.306;8.500;2023-01-10T01:54:53;1.10;;;1.00;;
9722;SDS011;4900;49.306;8.500;2023-01-10T01:58:00;1.30;;;1.03;;
9722;SDS011;4900;49.306;8.500;2023-01-10T02:01:08;1.43;;;1.00;;
9722;SDS011;4900;49.306;8.500;2023-01-10T02:04:14;1.57;;;1.00;;
9722;SDS011;4900;49.306;8.500;2023-01-10T02:07:21;1.60;;;1.17;;
9722;SDS011;4900;49.306;8.500;2023-01-10T02:13:53;1.10;;;1.00;;
9722;SDS011;4900;49.306;8.500;2023-01-10T02:16:57;1.20;;;1.00;;
9722;SDS011;4900;49.306;8.500;2023-01-10T02:20:01;1.57;;;1.30;;
9722;SDS011;4900;49.306;8.500;2023-01-10T02:27:07;1.57;;;1.10;;
9722;SDS011;4900;49.306;8.500;2023-01-10T02:30:06;1.90;;;1.13;;
9722;SDS011;4900;49.306;8.500;2023-01-10T02:33:22;3.27;;;1.20;;
9722;SDS011;4900;49.306;8.500;2023-01-10T02:40:25;3.00;;;1.30;;
9722;SDS011;4900;49.306;8.500;2023-01-10T02:43:38;3.20;;;1.40;;
9722;SDS011;4900;49.306;8.500;2023-01-10T02:46:47;2.03;;;1.20;;
9722;SDS011;4900;49.306;8.500;2023-01-10T02:49:51;3.37;;;1.50;;
9722;SDS011;4900;49.306;8.500;2023-01-10T02:52:55;1.50;;;1.10;;
9722;SDS011;4900;49.306;8.500;2023-01-10T03:02:37;2.10;;;1.33;;
9722;SDS011;4900;49.306;8.500;2023-01-10T03:09:15;3.07;;;1.43;;
9722;SDS011;4900;49.306;8.500;2023-01-10T03:12:27;2.33;;;1.30;;
9722;SDS011;4900;49.306;8.500;2023-01-10T03:15:38;3.67;;;1.50;;
9722;SDS011;4900;49.306;8.500;2023-01-10T03:18:44;3.63;;;1.50;;
9722;SDS011;4900;49.306;8.500;2023-01-10T03:22:11;3.40;;;1.50;;
9722;SDS011;4900;49.306;8.500;2023-01-10T03:25:15;3.73;;;1.93;;
9722;SDS011;4900;49.306;8.500;2023-01-10T03:28:29;3.40;;;1.83;;
9722;SDS011;4900;49.306;8.500;2023-01-10T03:31:38;5.27;;;1.60;;
9722;SDS011;4900;49.306;8.500;2023-01-10T03:34:46;4.23;;;1.90;;
9722;SDS011;4900;49.306;8.500;2023-01-10T03:37:53;5.10;;;1.90;;
9722;SDS011;4900;49.306;8.500;2023-01-10T03:41:01;5.43;;;1.77;;
9722;SDS011;4900;49.306;8.500;2023-01-10T03:47:39;3.50;;;1.70;;
9722;SDS011;4900;49.306;8.500;2023-01-10T03:50:47;4.87;;;1.97;;
9722;SDS011;4900;49.306;8.500;2023-01-10T03:53:52;4.53;;;1.77;;
9722;SDS011;4900;49.306;8.500;2023-01-10T03:56:56;3.07;;;1.67;;
9722;SDS011;4900;49.306;8.500;2023-01-10T03:59:59;5.40;;;1.70;;
9722;SDS011;4900;49.306;8.500;2023-01-10T04:03:02;5.53;;;1.90;;
9722;SDS011;4900;49.306;8.500;2023-01-10T04:06:05;5.23;;;1.97;;
9722;SDS011;4900;49.306;8.500;2023-01-10T04:09:08;2.63;;;1.70;;
9722;SDS011;4900;49.306;8.500;2023-01-10T04:12:12;4.20;;;2.10;;
9722;SDS011;4900;49.306;8.500;2023-01-10T04:15:14;4.00;;;1.83;;
9722;SDS011;4900;49.306;8.500;2023-01-10T04:18:17;3.40;;;1.70;;
9722;SDS011;4900;49.306;8.500;2023-01-10T04:21:21;3.20;;;1.90;;
9722;SDS011;4900;49.306;8.500;2023-01-10T04:24:24;3.63;;;1.70;;
9722;SDS011;4900;49.306;8.500;2023-01-10T04:27:27;3.73;;;1.63;;
9722;SDS011;4900;49.306;8.500;2023-01-10T04:30:30;2.70;;;1.90;;
9722;SDS011;4900;49.306;8.500;2023-01-10T04:33:33;3.70;;;1.90;;
9722;SDS011;4900;49.306;8.500;2023-01-10T04:36:36;3.93;;;1.90;;
9722;SDS011;4900;49.306;8.500;2023-01-10T04:39:39;3.57;;;1.93;;
9722;SDS011;4900;49.306;8.500;2023-01-10T04:42:42;4.97;;;1.93;;
9722;SDS011;4900;49.306;8.500;2023-01-10T04:45:45;3.47;;;2.10;;
9722;SDS011;4900;49.306;8.500;2023-01-10T04:48:48;3.70;;;1.90;;
9722;SDS011;4900;49.306;8.500;2023-01-10T04:51:51;3.83;;;1.93;;
9722;SDS011;4900;49.306;8.500;2023-01-10T04:54:54;4.53;;;2.60;;
9722;SDS011;4900;49.306;8.500;2023-01-10T04:57:56;6.47;;;3.60;;
9722;SDS011;4900;49.306;8.500;2023-01-10T05:01:05;4.03;;;3.10;;
9722;SDS011;4900;49.306;8.500;2023-01-10T05:04:12;7.13;;;2.70;;
9722;SDS011;4900;49.306;8.500;2023-01-10T05:07:16;6.70;;;2.80;;
9722;SDS011;4900;49.306;8.500;2023-01-10T05:10:19;4.70;;;2.20;;
9722;SDS011;4900;49.306;8.500;2023-01-10T05:13:22;4.83;;;2.40;;
9722;SDS011;4900;49.306;8.500;2023-01-10T05:16:27;4.67;;;2.23;;
9722;SDS011;4900;49.306;8.500;2023-01-10T05:19:31;6.33;;;2.50;;
9722;SDS011;4900;49.306;8.500;2023-01-10T05:22:34;3.53;;;2.30;;
9722;SDS011;4900;49.306;8.500;2023-01-10T05:25:37;8.20;;;2.70;;
9722;SDS011;4900;49.306;8.500;2023-01-10T05:28:40;5.83;;;2.30;;
9722;SDS011;4900;49.306;8.500;2023-01-10T05:31:44;7.23;;;2.47;;
9722;SDS011;4900;49.306;8.500;2023-01-10T05:34:47;6.27;;;2.63;;
9722;SDS011;4900;49.306;8.500;2023-01-10T05:37:50;7.13;;;2.50;;
9722;SDS011;4900;49.306;8.500;2023-01-10T05:40:54;6.70;;;3.07;;
9722;SDS011;4900;49.306;8.500;2023-01-10T05:43:58;7.57;;;3.23;;
9722;SDS011;4900;49.306;8.500;2023-01-10T05:47:01;8.33;;;3.03;;
9722;SDS011;4900;49.306;8.500;2023-01-10T05:50:04;9.53;;;3.40;;
9722;SDS011;4900;49.306;8.500;2023-01-10T05:53:07;7.93;;;3.80;;
9722;SDS011;4900;49.306;8.500;2023-01-10T05:56:11;12.43;;;4.53;;
9722;SDS011;4900;49.306;8.500;2023-01-10T05:59:13;11.27;;;4.10;;
9722;SDS011;4900;49.306;8.500;2023-01-10T06:02:16;10.00;;;3.70;;
9722;SDS011;4900;49.306;8.500;2023-01-10T06:05:19;12.80;;;3.30;;
9722;SDS011;4900;49.306;8.500;2023-01-10T06:08:23;11.33;;;3.00;;
9722;SDS011;4900;49.306;8.500;2023-01-10T06:11:27;9.27;;;3.47;;
9722;SDS011;4900;49.306;8.500;2023-01-10T06:14:32;9.67;;;3.50;;
9722;SDS011;4900;49.306;8.500;2023-01-10T06:17:35;6.43;;;3.30;;
9722;SDS011;4900;49.306;8.500;2023-01-10T06:20:39;8.17;;;3.37;;
9722;SDS011;4900;49.306;8.500;2023-01-10T06:23:45;14.33;;;4.00;;
9722;SDS011;4900;49.306;8.500;2023-01-10T06:26:48;8.60;;;3.60;;
9722;SDS011;4900;49.306;8.500;2023-01-10T06:29:51;14.30;;;4.47;;
9722;SDS011;4900;49.306;8.500;2023-01-10T06:32:58;11.10;;;4.27;;
9722;SDS011;4900;49.306;8.500;2023-01-10T06:36:05;9.17;;;3.90;;
9722;SDS011;4900;49.306;8.500;2023-01-10T06:39:09;8.90;;;3.90;;
9722;SDS011;4900;49.306;8.500;2023-01-10T06:42:12;11.53;;;4.43;;
9722;SDS011;4900;49.306;8.500;2023-01-10T06:45:15;10.97;;;3.83;;
9722;SDS011;4900;49.306;8.500;2023-01-10T06:48:18;9.70;;;3.63;;
9722;SDS011;4900;49.306;8.500;2023-01-10T06:51:21;10.50;;;3.87;;
9722;SDS011;4900;49.306;8.500;2023-01-10T06:54:24;9.23;;;3.17;;
9722;SDS011;4900;49.306;8.500;2023-01-10T06:57:27;11.70;;;4.00;;
9722;SDS011;4900;49.306;8.500;2023-01-10T07:00:30;11.37;;;3.47;;
9722;SDS011;4900;49.306;8.500;2023-01-10T07:03:33;10.27;;;4.20;;
9722;SDS011;4900;49.306;8.500;2023-01-10T07:06:36;8.77;;;3.67;;
9722;SDS011;4900;49.306;8.500;2023-01-10T07:09:40;14.33;;;4.80;;
9722;SDS011;4900;49.306;8.500;2023-01-10T07:12:42;13.27;;;4.77;;
9722;SDS011;4900;49.306;8.500;2023-01-10T07:15:45;10.20;;;4.57;;
9722;SDS011;4900;49.306;8.500;2023-01-10T07:18:48;8.00;;;4.27;;
9722;SDS011;4900;49.306;8.500;2023-01-10T07:21:51;13.97;;;4.60;;
9722;SDS011;4900;49.306;8.500;2023-01-10T07:24:54;10.50;;;4.23;;
9722;SDS011;4900;49.306;8.500;2023-01-10T07:27:57;9.17;;;4.07;;
9722;SDS011;4900;49.306;8.500;2023-01-10T07:31:01;12.40;;;4.70;;
9722;SDS011;4900;49.306;8.500;2023-01-10T07:34:05;13.33;;;4.60;;
9722;SDS011;4900;49.306;8.500;2023-01-10T07:37:08;7.50;;;3.97;;
9722;SDS011;4900;49.306;8.500;2023-01-10T07:40:11;9.60;;;3.90;;
9722;SDS011;4900;49.306;8.500;2023-01-10T07:43:14;11.37;;;4.27;;
9722;SDS011;4900;49.306;8.500;2023-01-10T07:46:17;10.23;;;4.43;;
9722;SDS011;4900;49.306;8.500;2023-01-10T07:49:20;9.77;;;3.50;;
9722;SDS011;4900;49.306;8.500;2023-01-10T07:52:23;7.40;;;3.90;;
9722;SDS011;4900;49.306;8.500;2023-01-10T07:55:26;8.70;;;3.27;;
9722;SDS011;4900;49.306;8.500;2023-01-10T07:58:30;7.67;;;2.80;;
9722;SDS011;4900;49.306;8.500;2023-01-10T08:01:34;13.13;;;3.73;;
9722;SDS011;4900;49.306;8.500;2023-01-10T08:04:37;6.73;;;2.90;;
9722;SDS011;4900;49.306;8.500;2023-01-10T08:07:40;8.80;;;3.50;;
9722;SDS011;4900;49.306;8.500;2023-01-10T08:10:43;7.80;;;3.00;;
9722;SDS011;4900;49.306;8.500;2023-01-10T08:13:46;5.57;;;2.60;;
9722;SDS011;4900;49.306;8.500;2023-01-10T08:16:49;12.37;;;2.90;;
9722;SDS011;4900;49.306;8.500;2023-01-10T08:19:52;8.10;;;3.30;;
9722;SDS011;4900;49.306;8.500;2023-01-10T08:22:58;8.03;;;3.57;;
9722;SDS011;4900;49.306;8.500;2023-01-10T08:26:01;9.93;;;3.40;;
9722;SDS011;4900;49.306;8.500;2023-01-10T08:29:04;6.00;;;3.20;;
9722;SDS011;4900;49.306;8.500;2023-01-10T08:32:07;11.47;;;3.93;;
9722;SDS011;4900;49.306;8.500;2023-01-10T08:35:10;9.03;;;4.33;;
9722;SDS011;4900;49.306;8.500;2023-01-10T08:38:14;11.33;;;4.13;;
9722;SDS011;4900;49.306;8.500;2023-01-10T08:41:17;11.10;;;3.53;;
9722;SDS011;4900;49.306;8.500;2023-01-10T08:44:20;9.53;;;3.53;;
9722;SDS011;4900;49.306;8.500;2023-01-10T08:47:23;10.63;;;4.07;;
9722;SDS011;4900;49.306;8.500;2023-01-10T08:50:26;9.47;;;3.83;;
9722;SDS011;4900;49.306;8.500;2023-01-10T08:53:29;10.50;;;4.43;;
9722;SDS011;4900;49.306;8.500;2023-01-10T08:56:33;10.37;;;4.30;;
9722;SDS011;4900;49.306;8.500;2023-01-10T08:59:38;12.80;;;4.10;;
9722;SDS011;4900;49.306;8.500;2023-01-10T09:02:41;11.27;;;4.40;;
9722;SDS011;4900;49.306;8.500;2023-01-10T09:05:44;11.87;;;4.60;;
9722;SDS011;4900;49.306;8.500;2023-01-10T09:08:47;8.70;;;4.10;;
9722;SDS011;4900;49.306;8.500;2023-01-10T09:11:50;9.80;;;3.27;;
9722;SDS011;4900;49.306;8.500;2023-01-10T09:14:53;9.73;;;3.30;;
9722;SDS011;4900;49.306;8.500;2023-01-10T09:17:57;8.73;;;3.27;;
9722;SDS011;4900;49.306;8.500;2023-01-10T09:21:02;13.10;;;3.47;;
9722;SDS011;4900;49.306;8.500;2023-01-10T09:24:05;11.27;;;2.97;;
9722;SDS011;4900;49.306;8.500;2023-01-10T09:27:09;10.77;;;2.73;;
9722;SDS011;4900;49.306;8.500;2023-01-10T09:30:13;8.47;;;2.93;;
9722;SDS011;4900;49.306;8.500;2023-01-10T09:33:16;9.30;;;3.23;;
9722;SDS011;4900;49.306;8.500;2023-01-10T09:36:19;7.03;;;2.80;;
9722;SDS011;4900;49.306;8.500;2023-01-10T09:39:22;9.23;;;2.90;;
9722;SDS011;4900;49.306;8.500;2023-01-10T09:42:34;6.93;;;2.70;;
9722;SDS011;4900;49.306;8.500;2023-01-10T09:52:36;9.50;;;4.03;;
9722;SDS011;4900;49.306;8.500;2023-01-10T09:55:42;9.33;;;3.40;;
9722;SDS011;4900;49.306;8.500;2023-01-10T09:58:51;9.80;;;3.30;;
9722;SDS011;4900;49.306;8.500;2023-01-10T10:05:22;11.27;;;4.20;;
9722;SDS011;4900;49.306;8.500;2023-01-10T10:08:28;11.10;;;4.43;;
9722;SDS011;4900;49.306;8.500;2023-01-10T10:21:55;10.50;;;3.90;;
9722;SDS011;4900;49.306;8.500;2023-01-10T10:25:07;11.90;;;3.90;;
9722;SDS011;4900;49.306;8.500;2023-01-10T10:31:43;18.40;;;4.80;;
9722;SDS011;4900;49.306;8.500;2023-01-10T10:35:15;13.43;;;4.30;;
9722;SDS011;4900;49.306;8.500;2023-01-10T10:38:30;12.47;;;4.47;;
9722;SDS011;4900;49.306;8.500;2023-01-10T10:41:39;13.47;;;4.70;;
9722;SDS011;4900;49.306;8.500;2023-01-10T10:48:02;11.87;;;4.00;;
9722;SDS011;4900;49.306;8.500;2023-01-10T10:51:56;10.03;;;4.03;;
9722;SDS011;4900;49.306;8.500;2023-01-10T10:54:44;10.27;;;4.03;;
9722;SDS011;4900;49.306;8.500;2023-01-10T10:57:46;14.23;;;3.90;;
9722;SDS011;4900;49.306;8.500;2023-01-10T11:00:50;10.53;;;4.10;;
9722;SDS011;4900;49.306;8.500;2023-01-10T11:04:13;12.33;;;4.67;;
9722;SDS011;4900;49.306;8.500;2023-01-10T11:07:19;12.70;;;4.40;;
9722;SDS011;4900;49.306;8.500;2023-01-10T11:10:23;9.77;;;4.27;;
9722;SDS011;4900;49.306;8.500;2023-01-10T11:13:42;16.13;;;3.93;;
9722;SDS011;4900;49.306;8.500;2023-01-10T11:16:50;10.97;;;3.83;;
9722;SDS011;4900;49.306;8.500;2023-01-10T11:26:57;10.90;;;3.20;;
9722;SDS011;4900;49.306;8.500;2023-01-10T11:30:06;12.27;;;3.60;;
9722;SDS011;4900;49.306;8.500;2023-01-10T11:33:16;13.53;;;3.23;;
9722;SDS011;4900;49.306;8.500;2023-01-10T11:36:23;9.03;;;3.03;;
9722;SDS011;4900;49.306;8.500;2023-01-10T11:39:27;11.27;;;3.67;;
9722;SDS011;4900;49.306;8.500;2023-01-10T11:42:31;10.17;;;2.97;;
9722;SDS011;4900;49.306;8.500;2023-01-10T11:45:35;12.87;;;4.10;;
9722;SDS011;4900;49.306;8.500;2023-01-10T11:48:49;15.53;;;4.10;;
9722;SDS011;4900;49.306;8.500;2023-01-10T11:51:55;12.47;;;3.97;;
9722;SDS011;4900;49.306;8.500;2023-01-10T11:55:02;12.13;;;4.23;;
9722;SDS011;4900;49.306;8.500;2023-01-10T11:58:12;14.97;;;4.80;;
9722;SDS011;4900;49.306;8.500;2023-01-10T12:01:27;10.50;;;3.80;;
9722;SDS011;4900;49.306;8.500;2023-01-10T12:04:50;12.43;;;3.73;;
9722;SDS011;4900;49.306;8.500;2023-01-10T12:08:01;9.67;;;3.30;;
9722;SDS011;4900;49.306;8.500;2023-01-10T12:14:20;12.23;;;4.17;;
9722;SDS011;4900;49.306;8.500;2023-01-10T12:17:30;12.13;;;4.57;;
9722;SDS011;4900;49.306;8.500;2023-01-10T12:20:43;10.70;;;4.10;;
9722;SDS011;4900;49.306;8.500;2023-01-10T12:23:49;10.60;;;3.80;;
9722;SDS011;4900;49.306;8.500;2023-01-10T12:26:55;10.30;;;3.37;;
9722;SDS011;4900;49.306;8.500;2023-01-10T12:33:13;9.07;;;3.00;;
9722;SDS011;4900;49.306;8.500;2023-01-10T12:39:50;11.63;;;3.53;;
9722;SDS011;4900;49.306;8.500;2023-01-10T12:43:02;10.17;;;3.00;;
9722;SDS011;4900;49.306;8.500;2023-01-10T12:46:37;13.13;;;3.53;;
9722;SDS011;4900;49.306;8.500;2023-01-10T12:49:53;8.50;;;2.97;;
9722;SDS011;4900;49.306;8.500;2023-01-10T12:56:40;8.67;;;3.03;;
9722;SDS011;4900;49.306;8.500;2023-01-10T12:59:44;11.77;;;3.60;;
9722;SDS011;4900;49.306;8.500;2023-01-10T13:02:47;11.40;;;3.27;;
9722;SDS011;4900;49.306;8.500;2023-01-10T13:05:55;7.17;;;2.67;;
9722;SDS011;4900;49.306;8.500;2023-01-10T13:09:02;11.00;;;3.17;;
9722;SDS011;4900;49.306;8.500;2023-01-10T13:12:29;8.87;;;3.03;;
9722;SDS011;4900;49.306;8.500;2023-01-10T13:15:40;12.80;;;4.70;;
9722;SDS011;4900;49.306;8.500;2023-01-10T13:18:56;7.63;;;3.30;;
9722;SDS011;4900;49.306;8.500;2023-01-10T13:22:17;10.53;;;3.60;;
9722;SDS011;4900;49.306;8.500;2023-01-10T13:25:30;10.90;;;4.47;;
9722;SDS011;4900;49.306;8.500;2023-01-10T13:28:41;11.03;;;3.97;;
9722;SDS011;4900;49.306;8.500;2023-01-10T13:31:57;7.73;;;3.50;;
9722;SDS011;4900;49.306;8.500;2023-01-10T13:38:19;9.33;;;4.03;;
9722;SDS011;4900;49.306;8.500;2023-01-10T13:42:08;11.80;;;3.87;;
9722;SDS011;4900;49.306;8.500;2023-01-10T13:45:27;8.53;;;3.57;;
9722;SDS011;4900;49.306;8.500;2023-01-10T13:48:31;9.97;;;3.53;;
9722;SDS011;4900;49.306;8.500;2023-01-10T13:51:34;8.07;;;2.93;;
9722;SDS011;4900;49.306;8.500;2023-01-10T13:54:37;10.03;;;2.93;;
9722;SDS011;4900;49.306;8.500;2023-01-10T13:57:58;8.20;;;3.10;;
9722;SDS011;4900;49.306;8.500;2023-01-10T14:01:26;13.17;;;3.00;;
9722;SDS011;4900;49.306;8.500;2023-01-10T14:04:52;10.67;;;3.20;;
9722;SDS011;4900;49.306;8.500;2023-01-10T14:07:57;9.77;;;3.53;;
9722;SDS011;4900;49.306;8.500;2023-01-10T14:11:07;8.17;;;3.63;;
9722;SDS011;4900;49.306;8.500;2023-01-10T14:17:22;9.43;;;3.23;;
9722;SDS011;4900;49.306;8.500;2023-01-10T14:20:33;9.30;;;3.13;;
9722;SDS011;4900;49.306;8.500;2023-01-10T14:23:38;7.43;;;2.80;;
9722;SDS011;4900;49.306;8.500;2023-01-10T14:26:45;6.17;;;2.80;;
9722;SDS011;4900;49.306;8.500;2023-01-10T14:29:53;8.43;;;3.20;;
9722;SDS011;4900;49.306;8.500;2023-01-10T14:33:18;4.80;;;2.93;;
9722;SDS011;4900;49.306;8.500;2023-01-10T14:36:27;6.90;;;3.27;;
9722;SDS011;4900;49.306;8.500;2023-01-10T14:39:33;7.97;;;2.80;;
9722;SDS011;4900;49.306;8.500;2023-01-10T14:42:37;6.50;;;2.83;;
9722;SDS011;4900;49.306;8.500;2023-01-10T14:45:59;8.00;;;2.83;;
9722;SDS011;4900;49.306;8.500;2023-01-10T14:49:21;7.50;;;2.90;;
9722;SDS011;4900;49.306;8.500;2023-01-10T14:52:31;6.57;;;2.63;;
9722;SDS011;4900;49.306;8.500;2023-01-10T14:55:35;6.40;;;2.33;;
9722;SDS011;4900;49.306;8.500;2023-01-10T14:58:44;9.77;;;2.53;;
9722;SDS011;4900;49.306;8.500;2023-01-10T15:01:47;7.07;;;2.77;;
9722;SDS011;4900;49.306;8.500;2023-01-10T15:11:22;6.10;;;2.47;;
9722;SDS011;4900;49.306;8.500;2023-01-10T15:14:28;4.17;;;2.47;;
9722;SDS011;4900;49.306;8.500;2023-01-10T15:17:33;7.47;;;2.87;;
9722;SDS011;4900;49.306;8.500;2023-01-10T15:20:38;6.03;;;2.60;;
9722;SDS011;4900;49.306;8.500;2023-01-10T15:23:42;5.60;;;2.27;;
9722;SDS011;4900;49.306;8.500;2023-01-10T15:26:49;8.57;;;2.40;;
9722;SDS011;4900;49.306;8.500;2023-01-10T15:29:54;5.20;;;1.93;;
9722;SDS011;4900;49.306;8.500;2023-01-10T15:33:02;4.43;;;2.40;;
9722;SDS011;4900;49.306;8.500;2023-01-10T15:36:11;8.57;;;2.53;;
9722;SDS011;4900;49.306;8.500;2023-01-10T15:39:24;6.77;;;2.53;;
9722;SDS011;4900;49.306;8.500;2023-01-10T15:42:30;6.67;;;2.93;;
9722;SDS011;4900;49.306;8.500;2023-01-10T15:45:34;7.57;;;2.83;;
9722;SDS011;4900;49.306;8.500;2023-01-10T15:48:40;6.70;;;3.03;;
9722;SDS011;4900;49.306;8.500;2023-01-10T15:51:46;8.63;;;3.10;;
9722;SDS011;4900;49.306;8.500;2023-01-10T15:54:49;6.00;;;3.00;;
9722;SDS011;4900;49.306;8.500;2023-01-10T15:57:52;7.90;;;3.07;;
9722;SDS011;4900;49.306;8.500;2023-01-10T16:00:55;5.80;;;2.93;;
9722;SDS011;4900;49.306;8.500;2023-01-10T16:04:01;7.27;;;3.33;;
9722;SDS011;4900;49.306;8.500;2023-01-10T16:07:11;5.93;;;3.00;;
9722;SDS011;4900;49.306;8.500;2023-01-10T16:10:26;5.50;;;2.83;;
9722;SDS011;4900;49.306;8.500;2023-01-10T16:13:29;4.63;;;3.00;;
9722;SDS011;4900;49.306;8.500;2023-01-10T16:16:36;5.03;;;2.70;;
9722;SDS011;4900;49.306;8.500;2023-01-10T16:19:40;7.23;;;3.37;;
9722;SDS011;4900;49.306;8.500;2023-01-10T16:22:43;5.43;;;3.10;;
9722;SDS011;4900;49.306;8.500;2023-01-10T16:25:49;7.60;;;3.83;;
9722;SDS011;4900;49.306;8.500;2023-01-10T16:28:54;7.10;;;3.70;;
9722;SDS011;4900;49.306;8.500;2023-01-10T16:31:57;6.10;;;3.30;;
9722;SDS011;4900;49.306;8.500;2023-01-10T16:35:00;7.37;;;3.90;;
9722;SDS011;4900;49.306;8.500;2023-01-10T16:38:04;14.00;;;6.97;;
9722;SDS011;4900;49.306;8.500;2023-01-10T16:41:08;11.33;;;5.70;;
9722;SDS011;4900;49.306;8.500;2023-01-10T16:44:32;7.80;;;4.47;;
9722;SDS011;4900;49.306;8.500;2023-01-10T16:47:35;7.53;;;3.90;;
9722;SDS011;4900;49.306;8.500;2023-01-10T16:50:39;7.83;;;3.40;;
9722;SDS011;4900;49.306;8.500;2023-01-10T16:53:42;5.90;;;3.00;;
9722;SDS011;4900;49.306;8.500;2023-01-10T16:56:47;4.70;;;2.93;;
9722;SDS011;4900;49.306;8.500;2023-01-10T16:59:50;6.63;;;2.80;;
9722;SDS011;4900;49.306;8.500;2023-01-10T17:02:53;5.83;;;3.13;;
9722;SDS011;4900;49.306;8.500;2023-01-10T17:05:56;7.40;;;3.47;;
9722;SDS011;4900;49.306;8.500;2023-01-10T17:08:58;6.90;;;3.30;;
9722;SDS011;4900;49.306;8.500;2023-01-10T17:12:02;7.17;;;3.27;;
9722;SDS011;4900;49.306;8.500;2023-01-10T17:15:10;4.97;;;3.20;;
9722;SDS011;4900;49.306;8.500;2023-01-10T17:18:14;6.87;;;3.57;;
9722;SDS011;4900;49.306;8.500;2023-01-10T17:21:18;8.40;;;3.57;;
9722;SDS011;4900;49.306;8.500;2023-01-10T17:24:23;7.07;;;3.47;;
9722;SDS011;4900;49.306;8.500;2023-01-10T17:27:26;8.70;;;4.30;;
9722;SDS011;4900;49.306;8.500;2023-01-10T17:30:29;8.73;;;4.77;;
9722;SDS011;4900;49.306;8.500;2023-01-10T17:33:32;11.53;;;4.50;;
9722;SDS011;4900;49.306;8.500;2023-01-10T17:36:35;10.37;;;4.10;;
9722;SDS011;4900;49.306;8.500;2023-01-10T17:39:41;6.80;;;4.23;;
9722;SDS011;4900;49.306;8.500;2023-01-10T17:42:44;6.20;;;3.60;;
9722;SDS011;4900;49.306;8.500;2023-01-10T17:45:48;5.83;;;3.67;;
9722;SDS011;4900;49.306;8.500;2023-01-10T17:48:52;10.67;;;5.07;;
9722;SDS011;4900;49.306;8.500;2023-01-10T17:51:55;6.83;;;3.93;;
9722;SDS011;4900;49.306;8.500;2023-01-10T17:55:00;8.27;;;4.20;;
9722;SDS011;4900;49.306;8.500;2023-01-10T17:58:05;8.70;;;3.40;;
9722;SDS011;4900;49.306;8.500;2023-01-10T18:01:21;7.10;;;3.20;;
9722;SDS011;4900;49.306;8.500;2023-01-10T18:04:26;8.33;;;3.00;;
9722;SDS011;4900;49.306;8.500;2023-01-10T18:07:29;6.33;;;3.10;;
9722;SDS011;4900;49.306;8.500;2023-01-10T18:10:32;8.97;;;3.07;;
9722;SDS011;4900;49.306;8.500;2023-01-10T18:13:35;9.27;;;2.80;;
9722;SDS011;4900;49.306;8.500;2023-01-10T18:16:38;5.50;;;3.00;;
9722;SDS011;4900;49.306;8.500;2023-01-10T18:19:40;15.07;;;6.80;;
9722;SDS011;4900;49.306;8.500;2023-01-10T18:22:44;14.77;;;6.47;;
9722;SDS011;4900;49.306;8.500;2023-01-10T18:26:10;21.83;;;9.90;;
9722;SDS011;4900;49.306;8.500;2023-01-10T18:29:14;17.63;;;7.37;;
9722;SDS011;4900;49.306;8.500;2023-01-10T18:32:17;15.70;;;7.43;;
9722;SDS011;4900;49.306;8.500;2023-01-10T18:35:22;16.57;;;7.20;;
9722;SDS011;4900;49.306;8.500;2023-01-10T18:38:25;21.50;;;9.83;;
9722;SDS011;4900;49.306;8.500;2023-01-10T18:41:28;25.73;;;10.87;;
9722;SDS011;4900;49.306;8.500;2023-01-10T18:44:30;17.00;;;6.90;;
9722;SDS011;4900;49.306;8.500;2023-01-10T18:47:33;48.60;;;20.03;;
9722;SDS011;4900;49.306;8.500;2023-01-10T18:50:37;30.97;;;13.63;;
9722;SDS011;4900;49.306;8.500;2023-01-10T18:53:40;35.87;;;16.70;;
9722;SDS011;4900;49.306;8.500;2023-01-10T18:56:44;20.70;;;10.63;;
9722;SDS011;4900;49.306;8.500;2023-01-10T18:59:47;19.97;;;9.03;;
9722;SDS011;4900;49.306;8.500;2023-01-10T19:02:50;15.77;;;7.97;;
9722;SDS011;4900;49.306;8.500;2023-01-10T19:05:57;15.43;;;7.50;;
9722;SDS011;4900;49.306;8.500;2023-01-10T19:09:02;26.33;;;12.70;;
9722;SDS011;4900;49.306;8.500;2023-01-10T19:12:05;34.10;;;15.67;;
9722;SDS011;4900;49.306;8.500;2023-01-10T19:15:08;18.80;;;8.43;;
9722;SDS011;4900;49.306;8.500;2023-01-10T19:18:12;11.87;;;6.10;;
9722;SDS011;4900;49.306;8.500;2023-01-10T19:21:16;11.07;;;5.60;;
9722;SDS011;4900;49.306;8.500;2023-01-10T19:24:24;10.50;;;4.80;;
9722;SDS011;4900;49.306;8.500;2023-01-10T19:27:29;12.07;;;7.10;;
9722;SDS011;4900;49.306;8.500;2023-01-10T19:30:32;10.13;;;5.63;;
9722;SDS011;4900;49.306;8.500;2023-01-10T19:33:35;9.23;;;5.20;;
9722;SDS011;4900;49.306;8.500;2023-01-10T19:36:39;9.53;;;4.43;;
9722;SDS011;4900;49.306;8.500;2023-01-10T19:39:43;8.47;;;4.67;;
9722;SDS011;4900;49.306;8.500;2023-01-10T19:42:45;12.13;;;5.33;;
9722;SDS011;4900;49.306;8.500;2023-01-10T19:45:49;8.63;;;4.70;;
9722;SDS011;4900;49.306;8.500;2023-01-10T19:48:55;8.23;;;3.97;;
9722;SDS011;4900;49.306;8.500;2023-01-10T19:51:59;8.87;;;6.70;;
9722;SDS011;4900;49.306;8.500;2023-01-10T19:55:02;8.47;;;4.53;;
9722;SDS011;4900;49.306;8.500;2023-01-10T19:58:05;7.57;;;4.63;;
9722;SDS011;4900;49.306;8.500;2023-01-10T20:01:12;6.33;;;4.50;;
9722;SDS011;4900;49.306;8.500;2023-01-10T20:04:18;7.83;;;4.80;;
9722;SDS011;4900;49.306;8.500;2023-01-10T20:07:21;18.33;;;9.70;;
9722;SDS011;4900;49.306;8.500;2023-01-10T20:10:24;9.23;;;5.40;;
9722;SDS011;4900;49.306;8.500;2023-01-10T20:13:27;8.33;;;4.60;;
9722;SDS011;4900;49.306;8.500;2023-01-10T20:16:30;6.57;;;4.37;;
9722;SDS011;4900;49.306;8.500;2023-01-10T20:19:32;10.23;;;5.37;;
9722;SDS011;4900;49.306;8.500;2023-01-10T20:22:35;8.20;;;4.60;;
9722;SDS011;4900;49.306;8.500;2023-01-10T20:25:38;9.70;;;4.40;;
9722;SDS011;4900;49.306;8.500;2023-01-10T20:28:41;7.30;;;4.20;;
9722;SDS011;4900;49.306;8.500;2023-01-10T20:31:46;11.90;;;5.73;;
9722;SDS011;4900;49.306;8.500;2023-01-10T20:34:54;7.40;;;4.53;;